createdAt,value
2017-12-30T00:00:25.239Z,16.73
2017-12-30T00:02:54.211Z,16.77
2017-12-30T00:05:21.657Z,14.80
2017-12-30T00:07:49.193Z,13.10
2017-12-30T00:10:17.083Z,14.97
2017-12-30T00:12:44.634Z,14.43
2017-12-30T00:15:13.506Z,17.90
2017-12-30T00:17:41.422Z,13.00
2017-12-30T00:20:08.895Z,15.43
2017-12-30T00:22:36.338Z,19.53
2017-12-30T00:25:04.176Z,14.87
2017-12-30T00:27:31.636Z,17.20
2017-12-30T00:29:59.621Z,21.60
2017-12-30T00:32:27.773Z,17.10
2017-12-30T00:34:55.233Z,16.03
2017-12-30T00:37:22.786Z,12.00
2017-12-30T00:39:50.346Z,22.00
2017-12-30T00:42:17.768Z,11.50
2017-12-30T00:44:46.000Z,14.57
2017-12-30T00:47:14.318Z,19.73
2017-12-30T00:49:42.514Z,23.73
2017-12-30T00:52:10.211Z,18.63
2017-12-30T00:54:37.917Z,16.57
2017-12-30T00:57:06.556Z,12.67
2017-12-30T00:59:34.090Z,23.77
2017-12-30T01:02:01.539Z,20.87
2017-12-30T01:04:29.970Z,9.27
2017-12-30T01:06:57.391Z,9.57
2017-12-30T01:09:24.836Z,16.90
2017-12-30T01:11:52.528Z,22.53
2017-12-30T01:14:20.728Z,13.43
2017-12-30T01:16:48.957Z,14.73
2017-12-30T01:19:16.950Z,13.77
2017-12-30T01:21:44.484Z,13.13
2017-12-30T01:24:11.933Z,11.07
2017-12-30T01:26:39.793Z,12.00
2017-12-30T01:29:07.891Z,13.10
2017-12-30T01:31:35.443Z,12.03
2017-12-30T01:34:02.887Z,10.63
2017-12-30T01:36:30.356Z,11.57
2017-12-30T01:38:58.140Z,9.93
2017-12-30T01:41:25.606Z,15.90
2017-12-30T01:43:53.093Z,17.87
2017-12-30T01:46:21.725Z,10.13
2017-12-30T01:49:01.682Z,11.60
2017-12-30T01:51:29.124Z,13.00
2017-12-30T01:53:56.592Z,10.77
2017-12-30T01:56:24.052Z,11.83
2017-12-30T01:58:51.501Z,13.00
2017-12-30T02:01:18.969Z,8.20
2017-12-30T02:03:46.417Z,5.73
2017-12-30T02:06:13.981Z,4.93
2017-12-30T02:08:41.504Z,7.17
2017-12-30T02:11:08.968Z,6.47
2017-12-30T02:13:36.520Z,8.70
2017-12-30T02:16:04.712Z,6.30
2017-12-30T02:18:32.687Z,15.13
2017-12-30T02:21:00.677Z,10.00
2017-12-30T02:23:28.151Z,7.93
2017-12-30T02:25:56.047Z,11.57
2017-12-30T02:28:23.510Z,15.03
2017-12-30T02:30:51.520Z,8.17
2017-12-30T02:33:19.684Z,9.83
2017-12-30T02:35:47.522Z,9.70
2017-12-30T02:38:14.977Z,12.67
2017-12-30T02:40:42.577Z,11.83
2017-12-30T02:43:10.024Z,16.00
2017-12-30T02:45:37.513Z,12.27
2017-12-30T02:48:06.063Z,10.93
2017-12-30T02:50:33.938Z,5.53
2017-12-30T02:53:01.458Z,7.97
2017-12-30T02:55:28.919Z,9.50
2017-12-30T02:57:56.474Z,10.50
2017-12-30T03:00:24.097Z,7.40
2017-12-30T03:02:52.405Z,13.97
2017-12-30T03:05:19.864Z,4.60
2017-12-30T03:07:47.551Z,8.83
2017-12-30T03:10:15.117Z,5.10
2017-12-30T03:12:42.984Z,9.73
2017-12-30T03:15:10.889Z,14.83
2017-12-30T03:17:39.106Z,10.93
2017-12-30T03:20:06.989Z,10.73
2017-12-30T03:22:34.953Z,8.63
2017-12-30T03:25:02.728Z,4.90
2017-12-30T03:27:30.184Z,9.27
2017-12-30T03:29:59.476Z,9.67
2017-12-30T03:32:27.206Z,9.23
2017-12-30T03:34:54.661Z,8.30
2017-12-30T03:37:22.876Z,11.07
2017-12-30T03:39:50.327Z,15.73
2017-12-30T03:42:17.827Z,11.70
2017-12-30T03:44:46.064Z,10.17
2017-12-30T03:47:14.120Z,9.47
2017-12-30T03:49:41.655Z,5.83
2017-12-30T03:52:09.120Z,7.57
2017-12-30T03:54:36.593Z,13.80
2017-12-30T03:57:04.058Z,9.43
2017-12-30T03:59:31.586Z,12.80
2017-12-30T04:01:59.012Z,15.43
2017-12-30T04:04:27.271Z,11.57
2017-12-30T04:06:55.490Z,12.40
2017-12-30T04:09:22.952Z,7.67
2017-12-30T04:11:50.661Z,8.30
2017-12-30T04:14:18.719Z,15.43
2017-12-30T04:16:46.175Z,10.30
2017-12-30T04:19:14.283Z,10.13
2017-12-30T04:21:41.756Z,6.40
2017-12-30T04:24:09.232Z,12.57
2017-12-30T04:26:37.087Z,23.63
2017-12-30T04:29:05.167Z,10.73
2017-12-30T04:31:32.849Z,6.77
2017-12-30T04:34:00.616Z,11.43
2017-12-30T04:36:28.064Z,8.97
2017-12-30T04:38:55.525Z,10.07
2017-12-30T04:41:23.068Z,3.87
2017-12-30T04:43:50.556Z,12.30
2017-12-30T04:46:18.217Z,11.33
2017-12-30T04:48:45.983Z,8.30
2017-12-30T04:51:14.132Z,11.00
2017-12-30T04:53:41.577Z,7.93
2017-12-30T04:56:09.017Z,8.80
2017-12-30T04:58:36.812Z,8.63
2017-12-30T05:01:04.255Z,7.20
2017-12-30T05:03:31.723Z,9.50
2017-12-30T05:05:59.252Z,10.70
2017-12-30T05:08:26.843Z,19.00
2017-12-30T05:10:54.299Z,9.33
2017-12-30T05:13:21.856Z,11.77
2017-12-30T05:15:49.620Z,15.53
2017-12-30T05:18:17.484Z,7.93
2017-12-30T05:20:45.360Z,6.97
2017-12-30T05:23:12.911Z,6.10
2017-12-30T05:25:40.773Z,16.13
2017-12-30T05:28:08.344Z,11.20
2017-12-30T05:30:36.108Z,11.87
2017-12-30T05:33:03.563Z,8.80
2017-12-30T05:35:31.067Z,7.40
2017-12-30T05:37:58.520Z,18.40
2017-12-30T05:40:25.984Z,8.23
2017-12-30T05:42:54.276Z,14.60
2017-12-30T05:45:21.736Z,6.90
2017-12-30T05:47:49.619Z,12.57
2017-12-30T05:50:17.501Z,6.67
2017-12-30T05:52:44.944Z,8.73
2017-12-30T05:55:12.406Z,8.80
2017-12-30T05:57:39.873Z,10.70
2017-12-30T06:00:07.316Z,8.60
2017-12-30T06:02:34.775Z,10.87
2017-12-30T06:05:02.746Z,15.67
2017-12-30T06:07:30.270Z,7.87
2017-12-30T06:09:57.697Z,13.60
2017-12-30T06:12:26.011Z,7.13
2017-12-30T06:14:53.704Z,24.43
2017-12-30T06:17:21.140Z,4.33
2017-12-30T06:19:49.193Z,11.00
2017-12-30T06:22:16.647Z,11.03
2017-12-30T06:24:44.440Z,5.87
2017-12-30T06:27:11.871Z,8.30
2017-12-30T06:29:39.549Z,9.97
2017-12-30T06:32:06.984Z,6.43
2017-12-30T06:34:34.463Z,13.87
2017-12-30T06:37:02.235Z,5.77
2017-12-30T06:39:29.695Z,10.27
2017-12-30T06:41:57.165Z,16.13
2017-12-30T06:44:24.719Z,9.93
2017-12-30T06:46:52.188Z,10.60
2017-12-30T06:49:20.031Z,11.20
2017-12-30T06:51:47.500Z,9.43
2017-12-30T06:54:14.940Z,23.23
2017-12-30T06:56:42.510Z,5.67
2017-12-30T06:59:10.244Z,8.20
2017-12-30T07:01:37.705Z,7.00
2017-12-30T07:04:05.146Z,8.33
2017-12-30T07:06:32.600Z,7.57
2017-12-30T07:09:00.034Z,3.30
2017-12-30T07:11:28.268Z,7.07
2017-12-30T07:13:55.744Z,7.77
2017-12-30T07:16:24.599Z,8.87
2017-12-30T07:18:52.068Z,11.73
2017-12-30T07:21:19.948Z,9.57
2017-12-30T07:23:48.113Z,9.73
2017-12-30T07:26:15.988Z,7.83
2017-12-30T07:28:43.630Z,10.90
2017-12-30T07:31:11.608Z,13.83
2017-12-30T07:33:39.129Z,12.17
2017-12-30T07:36:06.569Z,11.97
2017-12-30T07:38:34.042Z,5.50
2017-12-30T07:41:01.500Z,9.10
2017-12-30T07:43:28.939Z,8.60
2017-12-30T07:45:56.383Z,9.33
2017-12-30T07:48:24.512Z,9.07
2017-12-30T07:50:52.554Z,6.80
2017-12-30T07:53:21.372Z,9.70
2017-12-30T07:55:48.841Z,5.53
2017-12-30T07:58:16.314Z,12.97
2017-12-30T08:00:43.751Z,5.00
2017-12-30T08:03:11.304Z,11.63
2017-12-30T08:05:39.670Z,14.90
2017-12-30T08:08:07.110Z,8.10
2017-12-30T08:10:34.902Z,10.40
2017-12-30T08:13:02.766Z,5.43
2017-12-30T08:15:30.553Z,13.60
2017-12-30T08:17:58.797Z,4.23
2017-12-30T08:20:26.781Z,6.63
2017-12-30T08:22:54.278Z,15.20
2017-12-30T08:25:22.425Z,4.13
2017-12-30T08:27:50.684Z,4.23
2017-12-30T08:30:18.441Z,4.80
2017-12-30T08:32:45.903Z,3.17
2017-12-30T08:35:13.373Z,6.17
2017-12-30T08:37:41.220Z,3.33
2017-12-30T08:40:08.655Z,8.20
2017-12-30T08:42:36.201Z,4.20
2017-12-30T08:45:03.634Z,6.07
2017-12-30T08:47:32.312Z,4.60
2017-12-30T08:50:01.790Z,6.13
2017-12-30T08:52:29.772Z,8.23
2017-12-30T08:54:57.187Z,5.13
2017-12-30T08:57:24.653Z,4.80
2017-12-30T08:59:52.536Z,6.80
2017-12-30T09:02:20.050Z,4.07
2017-12-30T09:04:47.518Z,4.43
2017-12-30T09:07:14.988Z,1.57
2017-12-30T09:09:42.459Z,8.80
2017-12-30T09:12:09.934Z,1.73
2017-12-30T09:14:37.778Z,7.17
2017-12-30T09:17:05.238Z,4.07
2017-12-30T09:19:32.812Z,1.77
2017-12-30T09:22:00.661Z,1.13
2017-12-30T09:24:28.096Z,1.53
2017-12-30T09:26:56.193Z,1.80
2017-12-30T09:29:25.070Z,1.83
2017-12-30T09:31:52.518Z,2.10
2017-12-30T09:34:20.018Z,1.30
2017-12-30T09:36:48.582Z,1.37
2017-12-30T09:39:16.016Z,2.30
2017-12-30T09:41:43.860Z,2.10
2017-12-30T09:44:11.286Z,5.63
2017-12-30T09:46:39.520Z,0.83
2017-12-30T09:49:07.388Z,1.33
2017-12-30T09:51:34.947Z,1.73
2017-12-30T09:54:03.936Z,2.40
2017-12-30T09:56:31.406Z,2.50
2017-12-30T09:58:59.637Z,1.30
2017-12-30T10:01:27.217Z,0.90
2017-12-30T10:03:54.655Z,0.90
2017-12-30T10:06:22.272Z,1.87
2017-12-30T10:08:50.476Z,1.87
2017-12-30T10:11:17.961Z,2.30
2017-12-30T10:13:45.518Z,2.10
2017-12-30T10:16:13.419Z,1.00
2017-12-30T10:18:40.877Z,0.90
2017-12-30T10:21:08.600Z,1.10
2017-12-30T10:23:36.054Z,2.77
2017-12-30T10:26:03.844Z,0.80
2017-12-30T10:28:31.330Z,1.20
2017-12-30T10:31:00.153Z,1.23
2017-12-30T10:33:27.613Z,0.90
2017-12-30T10:35:55.445Z,1.23
2017-12-30T10:38:23.814Z,1.30
2017-12-30T10:40:51.653Z,2.43
2017-12-30T10:43:19.096Z,1.63
2017-12-30T10:45:46.628Z,2.57
2017-12-30T10:48:14.705Z,1.50
2017-12-30T10:50:42.236Z,2.47
2017-12-30T10:53:09.863Z,1.50
2017-12-30T10:55:37.301Z,2.90
2017-12-30T10:58:04.813Z,1.80
2017-12-30T11:00:38.892Z,1.90
2017-12-30T11:03:06.338Z,1.70
2017-12-30T11:05:34.027Z,1.77
2017-12-30T11:08:02.753Z,2.70
2017-12-30T11:10:30.714Z,2.30
2017-12-30T11:12:58.452Z,2.23
2017-12-30T11:15:27.634Z,2.10
2017-12-30T11:17:55.097Z,2.20
2017-12-30T11:20:23.125Z,2.33
2017-12-30T11:22:51.619Z,1.83
2017-12-30T11:25:21.153Z,2.60
2017-12-30T11:27:49.409Z,2.50
2017-12-30T11:30:17.579Z,2.53
2017-12-30T11:32:46.810Z,2.77
2017-12-30T11:35:14.300Z,2.77
2017-12-30T11:37:41.792Z,4.97
2017-12-30T11:40:11.067Z,5.60
2017-12-30T11:42:38.546Z,3.93
2017-12-30T11:45:06.039Z,6.73
2017-12-30T11:47:34.993Z,13.73
2017-12-30T11:50:03.224Z,11.73
2017-12-30T11:52:30.798Z,8.23
2017-12-30T11:54:58.322Z,8.77
2017-12-30T11:57:26.626Z,11.97
2017-12-30T11:59:54.390Z,12.07
2017-12-30T12:02:21.872Z,16.33
2017-12-30T12:04:49.482Z,13.50
2017-12-30T12:07:17.896Z,18.80
2017-12-30T12:09:45.465Z,13.63
2017-12-30T12:12:12.900Z,16.10
2017-12-30T12:14:40.903Z,20.40
2017-12-30T12:17:08.380Z,19.90
2017-12-30T12:19:36.699Z,19.63
2017-12-30T12:22:04.889Z,23.40
2017-12-30T12:24:33.259Z,18.60
2017-12-30T12:27:00.877Z,24.77
2017-12-30T12:29:29.980Z,24.03
2017-12-30T12:31:58.232Z,31.83
2017-12-30T12:34:26.123Z,21.77
2017-12-30T12:36:54.469Z,20.53
2017-12-30T12:39:21.994Z,22.13
2017-12-30T12:41:49.463Z,28.50
2017-12-30T12:44:16.943Z,36.87
2017-12-30T12:46:44.400Z,29.40
2017-12-30T12:49:12.875Z,32.70
2017-12-30T12:51:40.409Z,30.73
2017-12-30T12:54:07.924Z,36.43
2017-12-30T12:56:36.172Z,39.27
2017-12-30T12:59:03.680Z,27.70
2017-12-30T13:01:32.184Z,31.50
2017-12-30T13:03:59.777Z,39.07
2017-12-30T13:06:27.282Z,32.60
2017-12-30T13:08:54.859Z,30.40
2017-12-30T13:11:22.402Z,35.30
2017-12-30T13:13:49.863Z,25.93
2017-12-30T13:16:18.020Z,28.90
2017-12-30T13:18:45.478Z,26.00
2017-12-30T13:21:13.869Z,32.50
2017-12-30T13:23:41.359Z,27.63
2017-12-30T13:26:09.394Z,29.97
2017-12-30T13:28:36.868Z,30.47
2017-12-30T13:31:04.822Z,22.03
2017-12-30T13:33:32.311Z,37.50
2017-12-30T13:35:59.852Z,20.00
2017-12-30T13:38:27.711Z,31.00
2017-12-30T13:40:56.386Z,23.93
2017-12-30T13:43:24.578Z,25.97
2017-12-30T13:45:52.030Z,29.17
2017-12-30T13:48:19.979Z,26.37
2017-12-30T13:50:47.961Z,22.00
2017-12-30T13:53:15.443Z,36.43
2017-12-30T13:55:42.884Z,21.60
2017-12-30T13:58:10.409Z,32.40
2017-12-30T14:00:37.896Z,31.63
2017-12-30T14:03:05.433Z,37.57
2017-12-30T14:05:33.015Z,33.33
2017-12-30T14:08:00.684Z,35.83
2017-12-30T14:10:28.195Z,35.93
2017-12-30T14:12:56.650Z,22.13
2017-12-30T14:15:24.728Z,24.20
2017-12-30T14:17:53.018Z,25.27
2017-12-30T14:20:21.233Z,41.67
2017-12-30T14:22:49.900Z,36.90
2017-12-30T14:25:17.942Z,25.93
2017-12-30T14:27:46.195Z,29.50
2017-12-30T14:30:13.998Z,45.20
2017-12-30T14:32:41.464Z,49.27
2017-12-30T14:35:08.965Z,35.23
2017-12-30T14:37:37.523Z,32.80
2017-12-30T14:40:05.093Z,29.73
2017-12-30T14:42:33.500Z,38.90
2017-12-30T14:45:02.244Z,41.20
2017-12-30T14:47:30.451Z,30.73
2017-12-30T14:49:58.548Z,34.33
2017-12-30T14:52:26.769Z,27.20
2017-12-30T14:54:54.366Z,34.83
2017-12-30T14:57:21.866Z,27.67
2017-12-30T14:59:49.345Z,29.33
2017-12-30T15:02:16.805Z,32.40
2017-12-30T15:04:44.713Z,59.93
2017-12-30T15:07:13.022Z,29.50
2017-12-30T15:09:40.989Z,37.13
2017-12-30T15:12:08.449Z,32.50
2017-12-30T15:14:36.417Z,32.50
2017-12-30T15:17:03.885Z,37.53
2017-12-30T15:19:31.350Z,38.50
2017-12-30T15:21:59.260Z,28.07
2017-12-30T15:24:26.758Z,32.03
2017-12-30T15:29:25.667Z,37.13
2017-12-30T15:31:53.134Z,29.67
2017-12-30T15:34:20.578Z,34.83
2017-12-30T15:36:48.093Z,32.50
2017-12-30T15:39:16.452Z,29.63
2017-12-30T15:41:44.057Z,28.43
2017-12-30T15:44:11.511Z,33.30
2017-12-30T15:46:39.222Z,41.63
2017-12-30T15:49:07.119Z,29.57
2017-12-30T15:51:35.351Z,26.53
2017-12-30T15:54:03.032Z,32.87
2017-12-30T15:56:31.041Z,30.43
2017-12-30T15:58:58.536Z,28.33
2017-12-30T16:01:26.024Z,22.07
2017-12-30T16:03:53.569Z,30.20
2017-12-30T16:06:21.022Z,34.23
2017-12-30T16:08:48.506Z,33.50
2017-12-30T16:11:16.722Z,35.17
2017-12-30T16:13:44.246Z,41.70
2017-12-30T16:16:12.906Z,30.37
2017-12-30T16:18:40.380Z,26.07
2017-12-30T16:21:07.887Z,18.63
2017-12-30T16:23:35.707Z,42.73
2017-12-30T16:26:04.253Z,23.63
2017-12-30T16:28:32.377Z,21.67
2017-12-30T16:31:00.118Z,29.17
2017-12-30T16:33:28.342Z,25.23
2017-12-30T16:35:55.911Z,32.57
2017-12-30T16:38:23.948Z,23.73
2017-12-30T16:40:51.486Z,33.80
2017-12-30T16:43:19.741Z,28.30
2017-12-30T16:45:47.203Z,28.47
2017-12-30T16:48:14.996Z,33.60
2017-12-30T16:50:42.510Z,42.00
2017-12-30T16:53:09.982Z,35.00
2017-12-30T16:55:38.213Z,27.23
2017-12-30T16:58:05.655Z,23.83
2017-12-30T17:00:33.199Z,33.93
2017-12-30T17:03:00.660Z,29.40
2017-12-30T17:05:28.138Z,34.13
2017-12-30T17:07:55.594Z,29.93
2017-12-30T17:10:23.053Z,21.70
2017-12-30T17:12:50.578Z,30.40
2017-12-30T17:15:19.135Z,38.70
2017-12-30T17:17:46.595Z,29.07
2017-12-30T17:20:14.077Z,22.27
2017-12-30T17:22:41.897Z,34.80
2017-12-30T17:25:10.113Z,38.90
2017-12-30T17:27:37.971Z,40.43
2017-12-30T17:30:06.844Z,33.33
2017-12-30T17:32:34.350Z,37.50
2017-12-30T17:35:01.834Z,37.03
2017-12-30T17:37:29.322Z,28.23
2017-12-30T17:39:56.780Z,29.63
2017-12-30T17:42:24.252Z,27.70
2017-12-30T17:44:52.462Z,29.33
2017-12-30T17:47:20.348Z,31.57
2017-12-30T17:49:48.220Z,29.93
2017-12-30T17:52:16.003Z,22.37
2017-12-30T17:54:43.482Z,22.70
2017-12-30T17:57:11.769Z,32.53
2017-12-30T17:59:39.247Z,34.77
2017-12-30T18:02:06.793Z,28.53
2017-12-30T18:04:34.232Z,33.90
2017-12-30T18:07:01.756Z,29.87
2017-12-30T18:09:29.227Z,32.53
2017-12-30T18:11:57.474Z,25.03
2017-12-30T18:14:25.808Z,36.97
2017-12-30T18:16:53.284Z,36.37
2017-12-30T18:19:20.744Z,26.43
2017-12-30T18:21:48.425Z,35.63
2017-12-30T18:24:16.238Z,23.37
2017-12-30T18:26:44.897Z,26.37
2017-12-30T18:29:12.936Z,25.40
2017-12-30T18:31:40.444Z,34.00
2017-12-30T18:34:08.978Z,30.63
2017-12-30T18:36:36.791Z,32.23
2017-12-30T18:39:05.047Z,34.67
2017-12-30T18:41:33.439Z,37.43
2017-12-30T18:44:01.678Z,36.37
2017-12-30T18:46:29.521Z,33.50
2017-12-30T18:48:57.391Z,26.73
2017-12-30T18:51:24.912Z,34.97
2017-12-30T18:53:53.137Z,29.87
2017-12-30T18:56:20.646Z,40.63
2017-12-30T18:58:48.882Z,35.60
2017-12-30T19:01:16.453Z,32.63
2017-12-30T19:03:43.965Z,37.77
2017-12-30T19:06:11.432Z,24.57
2017-12-30T19:08:38.918Z,36.53
2017-12-30T19:11:06.372Z,29.03
2017-12-30T19:13:33.869Z,35.50
2017-12-30T19:16:02.442Z,36.93
2017-12-30T19:18:30.725Z,29.40
2017-12-30T19:20:59.180Z,38.40
2017-12-30T19:23:27.404Z,40.87
2017-12-30T19:25:56.084Z,25.20
2017-12-30T19:28:23.608Z,42.27
2017-12-30T19:30:52.539Z,28.87
2017-12-30T19:33:20.091Z,36.27
2017-12-30T19:35:48.061Z,35.17
2017-12-30T19:38:15.600Z,33.33
2017-12-30T19:40:43.938Z,33.57
2017-12-30T19:43:11.607Z,33.57
2017-12-30T19:45:39.566Z,33.37
2017-12-30T19:48:07.466Z,29.47
2017-12-30T19:50:35.869Z,32.83
2017-12-30T19:53:03.555Z,28.33
2017-12-30T19:55:31.225Z,33.13
2017-12-30T19:57:59.161Z,28.77
2017-12-30T20:00:26.688Z,29.53
2017-12-30T20:02:56.668Z,34.00
2017-12-30T20:05:25.151Z,22.10
2017-12-30T20:07:53.804Z,26.33
2017-12-30T20:10:21.357Z,29.30
2017-12-30T20:12:49.941Z,33.70
2017-12-30T20:15:19.578Z,19.83
2017-12-30T20:17:47.092Z,22.60
2017-12-30T20:20:14.632Z,29.13
2017-12-30T20:22:43.856Z,23.00
2017-12-30T20:25:12.706Z,37.37
2017-12-30T20:27:40.178Z,39.10
2017-12-30T20:30:09.715Z,26.57
2017-12-30T20:32:38.645Z,29.60
2017-12-30T20:35:06.570Z,36.47
2017-12-30T20:37:34.491Z,24.70
2017-12-30T20:40:02.917Z,26.73
2017-12-30T20:42:30.468Z,20.90
2017-12-30T20:44:58.077Z,22.17
2017-12-30T20:47:25.954Z,30.67
2017-12-30T20:49:54.486Z,21.07
2017-12-30T20:52:22.933Z,24.03
2017-12-30T20:54:51.176Z,26.53
2017-12-30T20:57:18.685Z,33.27
2017-12-30T20:59:47.177Z,27.30
2017-12-30T21:02:15.629Z,20.10
2017-12-30T21:04:43.869Z,26.00
2017-12-30T21:07:11.937Z,33.03
2017-12-30T21:09:39.411Z,31.33
2017-12-30T21:12:07.676Z,25.10
2017-12-30T21:14:35.756Z,30.27
2017-12-30T21:17:03.640Z,22.57
2017-12-30T21:19:31.903Z,31.53
2017-12-30T21:21:59.364Z,31.47
2017-12-30T21:24:27.920Z,24.63
2017-12-30T21:26:55.785Z,39.27
2017-12-30T21:29:25.050Z,32.00
2017-12-30T21:31:54.146Z,33.67
2017-12-30T21:34:22.589Z,21.97
2017-12-30T21:36:50.859Z,38.77
2017-12-30T21:39:19.995Z,28.57
2017-12-30T21:41:48.385Z,35.97
2017-12-30T21:44:15.882Z,30.97
2017-12-30T21:46:43.902Z,36.80
2017-12-30T21:49:12.880Z,31.33
2017-12-30T21:51:41.372Z,31.40
2017-12-30T21:54:08.892Z,39.27
2017-12-30T21:56:37.225Z,32.93
2017-12-30T21:59:04.763Z,38.40
2017-12-30T22:01:32.304Z,40.03
2017-12-30T22:04:00.507Z,25.73
2017-12-30T22:06:28.241Z,26.33
2017-12-30T22:08:56.081Z,19.50
2017-12-30T22:11:24.448Z,33.47
2017-12-30T22:13:51.911Z,33.17
2017-12-30T22:16:19.735Z,38.53
2017-12-30T22:18:47.216Z,30.00
2017-12-30T22:21:14.696Z,27.27
2017-12-30T22:23:43.078Z,32.37
2017-12-30T22:26:11.656Z,39.80
2017-12-30T22:28:39.140Z,31.00
2017-12-30T22:31:07.095Z,35.03
2017-12-30T22:33:34.620Z,38.90
2017-12-30T22:36:02.078Z,26.80
2017-12-30T22:38:29.530Z,25.33
2017-12-30T22:40:57.058Z,27.63
2017-12-30T22:43:24.509Z,31.93
2017-12-30T22:45:52.152Z,25.97
2017-12-30T22:48:21.213Z,32.00
2017-12-30T22:50:48.673Z,31.47
2017-12-30T22:53:16.746Z,28.07
2017-12-30T22:55:44.293Z,31.83
2017-12-30T22:58:11.828Z,22.23
2017-12-30T23:00:54.165Z,34.63
2017-12-30T23:03:21.643Z,23.37
2017-12-30T23:05:49.858Z,30.17
2017-12-30T23:08:17.341Z,29.13
2017-12-30T23:10:45.433Z,28.23
2017-12-30T23:13:12.875Z,39.20
2017-12-30T23:15:40.809Z,26.93
2017-12-30T23:18:08.276Z,29.17
2017-12-30T23:20:35.854Z,31.80
2017-12-30T23:23:04.379Z,39.17
2017-12-30T23:25:33.060Z,30.07
2017-12-30T23:28:00.531Z,30.90
2017-12-30T23:30:28.347Z,30.53
2017-12-30T23:32:56.021Z,38.17
2017-12-30T23:35:24.252Z,24.67
2017-12-30T23:37:51.980Z,23.80
2017-12-30T23:40:19.433Z,29.30
2017-12-30T23:42:47.603Z,25.50
2017-12-30T23:45:15.841Z,47.00
2017-12-30T23:47:43.626Z,32.00
2017-12-30T23:50:11.574Z,30.33
2017-12-30T23:52:39.332Z,41.80
2017-12-30T23:55:06.823Z,18.17
2017-12-30T23:57:35.072Z,30.67
